Time;durP1;ratioP1;P1;durP2;ratioP2;P2;SDS_P1;SDS_P2;PMS_P1;PMS_P2;Temp;Humidity;BMP_temperature;BMP_pressure;BME280_temperature;BME280_humidity;BME280_pressure;Samples;Min_cycle;Max_cycle;Signal;HPM_P1;HPM_P2
2022/09/03 00:02:21;;;;;;;32.33;23.20;;;15.00;99.90;;;;;;4988442;28;20133;-59
2022/09/03 00:04:46;;;;;;;;;;;15.00;99.90;;;;;;4986858;28;20023;-59
2022/09/03 00:07:25;;;;;;;29.83;22.27;;;14.90;99.90;;;;;;4990879;28;20279;-58
2022/09/03 00:09:58;;;;;;;37.38;28.25;;;14.90;99.90;;;;;;4988627;28;20184;-59
2022/09/03 00:12:28;;;;;;;41.97;29.63;;;15.00;99.90;;;;;;4982936;28;20129;-59
2022/09/03 00:15:02;;;;;;;35.80;25.40;;;15.00;99.90;;;;;;4982201;28;20087;-59
2022/09/03 00:17:53;;;;;;;36.25;24.85;;;15.00;99.90;;;;;;4982479;28;20144;-58
2022/09/03 00:20:45;;;;;;;31.50;22.63;;;15.20;99.90;;;;;;4978943;28;20042;-58
2022/09/03 00:23:31;;;;;;;23.10;19.35;;;15.20;99.90;;;;;;4974464;28;20038;-58
2022/09/03 00:26:12;;;;;;;32.00;20.55;;;15.20;99.90;;;;;;4987967;28;20037;-59
2022/09/03 00:28:46;;;;;;;31.60;23.45;;;15.20;99.90;;;;;;4990314;28;20049;-58
2022/09/03 00:31:26;;;;;;;25.70;18.63;;;15.30;99.90;;;;;;4989895;28;20109;-58
2022/09/03 00:34:03;;;;;;;33.40;24.15;;;15.30;99.90;;;;;;4988103;28;20030;-59
2022/09/03 00:36:41;;;;;;;37.97;25.85;;;15.20;99.90;;;;;;4990834;28;20033;-59
2022/09/03 00:39:12;;;;;;;30.30;22.08;;;15.20;99.90;;;;;;4977290;28;20030;-58
2022/09/03 00:42:07;;;;;;;23.08;17.48;;;15.20;99.90;;;;;;4986341;28;20458;-58
2022/09/03 00:44:48;;;;;;;21.17;17.67;;;15.20;99.90;;;;;;4982636;28;20130;-58
2022/09/03 00:47:32;;;;;;;29.42;22.95;;;15.10;99.90;;;;;;4986019;28;20864;-58
2022/09/03 00:50:23;;;;;;;42.33;28.77;;;15.10;99.90;;;;;;4986885;28;20075;-58
2022/09/03 00:53:01;;;;;;;40.95;30.85;;;15.10;99.90;;;;;;4988053;28;20089;-57
2022/09/03 00:55:46;;;;;;;38.38;25.95;;;15.10;99.90;;;;;;4985686;28;20030;-59
2022/09/03 00:58:42;;;;;;;34.85;24.20;;;15.10;99.90;;;;;;4985200;28;20022;-58
2022/09/03 01:01:20;;;;;;;37.30;25.40;;;15.00;99.90;;;;;;4988001;28;20371;-58
2022/09/03 01:03:57;;;;;;;38.28;26.90;;;15.00;99.90;;;;;;4990582;28;20026;-58
2022/09/03 01:06:35;;;;;;;40.30;29.73;;;15.00;99.90;;;;;;4988814;28;20115;-57
2022/09/03 01:09:15;;;;;;;43.63;30.15;;;14.90;99.90;;;;;;4986195;28;20042;-59
2022/09/03 01:12:00;;;;;;;38.97;28.90;;;14.90;99.90;;;;;;4989724;28;20030;-58
2022/09/03 01:14:37;;;;;;;31.27;22.40;;;14.80;99.90;;;;;;4990106;28;20037;-57
2022/09/03 01:17:26;;;;;;;33.38;22.90;;;14.70;99.90;;;;;;4988891;28;20034;-58
2022/09/03 01:20:06;;;;;;;26.25;19.20;;;14.70;99.90;;;;;;4990417;28;20041;-58
2022/09/03 01:22:44;;;;;;;20.55;16.23;;;14.60;99.90;;;;;;4988829;28;20121;-59
2022/09/03 01:25:47;;;;;;;21.92;15.63;;;14.60;99.90;;;;;;4985748;28;20386;-58
2022/09/03 01:28:24;;;;;;;25.13;19.83;;;14.60;99.90;;;;;;4988305;28;20041;-58
2022/09/03 01:31:26;;;;;;;21.55;16.92;;;14.50;99.90;;;;;;4980157;28;20030;-58
2022/09/03 01:34:11;;;;;;;25.20;17.15;;;14.60;99.90;;;;;;4986852;28;20034;-59
2022/09/03 01:36:53;;;;;;;26.92;16.90;;;14.60;99.90;;;;;;4988164;28;20034;-58
2022/09/03 01:39:45;;;;;;;24.00;17.38;;;14.70;99.90;;;;;;4988520;28;20054;-57
2022/09/03 01:42:29;;;;;;;24.03;15.27;;;14.70;99.90;;;;;;4982611;28;20034;-58
2022/09/03 01:45:21;;;;;;;19.17;12.57;;;14.70;99.90;;;;;;4987231;28;20738;-58
2022/09/03 01:47:53;;;;;;;17.67;12.80;;;14.60;99.90;;;;;;4985581;28;20053;-59
2022/09/03 01:50:27;;;;;;;14.38;11.57;;;14.50;99.90;;;;;;4981711;28;20394;-59
2022/09/03 01:53:05;;;;;;;27.67;15.50;;;14.40;99.90;;;;;;4990692;28;20045;-59
2022/09/03 01:55:56;;;;;;;23.92;16.13;;;14.40;99.90;;;;;;4988138;28;20026;-59
2022/09/03 01:58:31;;;;;;;22.80;15.48;;;14.30;99.90;;;;;;4988946;28;20038;-58
2022/09/03 02:01:07;;;;;;;16.98;13.88;;;14.30;99.90;;;;;;4984882;28;20042;-59
2022/09/03 02:03:40;;;;;;;15.32;11.02;;;14.30;99.90;;;;;;4989897;28;20034;-59
2022/09/03 02:06:08;;;;;;;19.48;12.18;;;14.30;99.90;;;;;;4984285;28;21471;-59
2022/09/03 02:08:33;;;;;;;21.85;12.65;;;14.30;99.90;;;;;;4984256;28;20046;-59
2022/09/03 02:11:01;;;;;;;19.35;13.40;;;14.20;99.90;;;;;;4979547;28;20030;-59
2022/09/03 02:13:48;;;;;;;30.65;21.67;;;14.20;99.90;;;;;;4986975;28;20028;-57
2022/09/03 02:16:18;;;;;;;35.92;24.65;;;14.30;99.90;;;;;;4987776;28;20108;-57
2022/09/03 02:18:48;;;;;;;44.45;26.35;;;14.40;99.90;;;;;;4984548;28;20033;-58
2022/09/03 02:21:18;;;;;;;36.25;24.70;;;14.40;99.90;;;;;;4985481;28;21010;-58
2022/09/03 02:23:44;;;;;;;46.58;31.13;;;14.30;99.90;;;;;;4988921;28;20034;-60
2022/09/03 02:26:14;;;;;;;35.15;20.73;;;14.30;99.90;;;;;;4979578;28;20027;-59
2022/09/03 02:28:40;;;;;;;22.52;17.40;;;14.40;99.90;;;;;;4988841;28;20100;-60
2022/09/03 02:31:06;;;;;;;21.35;16.20;;;14.30;99.90;;;;;;4986814;28;20026;-59
2022/09/03 02:33:38;;;;;;;26.40;20.73;;;14.30;99.90;;;;;;4987862;28;20030;-59
2022/09/03 02:36:07;;;;;;;36.50;25.70;;;14.30;99.90;;;;;;4984775;28;20035;-59
2022/09/03 02:38:33;;;;;;;40.45;26.92;;;14.30;99.90;;;;;;4989860;28;20459;-57
2022/09/03 02:40:59;;;;;;;36.72;25.33;;;14.40;99.90;;;;;;4986640;28;20057;-58
2022/09/03 02:43:48;;;;;;;33.28;24.33;;;14.40;99.90;;;;;;4985838;28;20528;-59
2022/09/03 02:46:22;;;;;;;34.53;22.45;;;14.40;99.90;;;;;;4980176;28;20395;-59
2022/09/03 02:48:47;;;;;;;31.95;26.65;;;14.50;99.90;;;;;;4986787;28;20053;-59
2022/09/03 02:51:13;;;;;;;29.42;25.55;;;14.50;99.90;;;;;;4973098;28;20022;-59
2022/09/03 02:53:39;;;;;;;28.95;22.92;;;14.60;99.90;;;;;;4984320;28;20124;-59
2022/09/03 02:56:05;;;;;;;29.30;23.70;;;14.60;99.90;;;;;;4986470;28;20030;-59
2022/09/03 02:58:31;;;;;;;27.55;23.38;;;14.70;99.90;;;;;;4988826;28;20093;-59
2022/09/03 03:00:57;;;;;;;24.95;22.17;;;14.70;99.90;;;;;;4987479;28;20494;-59
2022/09/03 03:03:23;;;;;;;25.95;22.48;;;14.70;99.90;;;;;;4986819;28;20030;-60
2022/09/03 03:05:52;;;;;;;30.50;22.83;;;14.70;99.90;;;;;;4989015;28;20105;-60
2022/09/03 03:08:23;;;;;;;26.23;22.65;;;14.70;99.90;;;;;;4992317;28;20034;-59
2022/09/03 03:10:51;;;;;;;26.67;23.35;;;14.70;99.90;;;;;;4986264;28;20094;-59
2022/09/03 03:13:17;;;;;;;27.55;24.35;;;14.70;99.90;;;;;;4989765;28;20030;-59
2022/09/03 03:15:43;;;;;;;26.75;23.23;;;14.70;99.90;;;;;;4993429;28;20081;-60
2022/09/03 03:18:10;;;;;;;26.55;23.42;;;14.70;99.90;;;;;;4992023;28;20037;-60
2022/09/03 03:20:37;;;;;;;26.88;22.52;;;14.70;99.90;;;;;;4992878;28;20034;-59
2022/09/03 03:23:04;;;;;;;27.05;20.75;;;14.80;99.90;;;;;;4990419;28;20033;-59
2022/09/03 03:25:34;;;;;;;26.33;22.02;;;14.80;99.90;;;;;;4993311;28;20474;-60
2022/09/03 03:28:00;;;;;;;24.63;21.83;;;14.80;99.90;;;;;;4989050;28;20490;-59
2022/09/03 03:30:27;;;;;;;25.23;21.85;;;14.90;99.90;;;;;;4993303;28;20038;-58
2022/09/03 03:32:54;;;;;;;23.35;20.38;;;14.80;99.90;;;;;;4989902;28;20023;-57
2022/09/03 03:35:20;;;;;;;26.50;22.27;;;14.70;99.90;;;;;;4992299;28;20494;-58
2022/09/03 03:37:46;;;;;;;26.15;21.30;;;14.70;99.90;;;;;;4992783;28;20109;-58
2022/09/03 03:40:12;;;;;;;26.40;21.00;;;14.60;99.90;;;;;;4990957;28;20555;-58
2022/09/03 03:42:38;;;;;;;27.92;21.90;;;14.60;99.90;;;;;;4990443;28;20034;-58
2022/09/03 03:45:05;;;;;;;27.90;23.13;;;14.50;99.90;;;;;;4988392;28;20069;-59
2022/09/03 03:47:32;;;;;;;27.65;21.92;;;14.40;99.90;;;;;;4992769;28;20046;-58
2022/09/03 03:49:58;;;;;;;28.15;21.65;;;14.40;99.90;;;;;;4986350;28;20034;-58
2022/09/03 03:52:25;;;;;;;24.13;20.90;;;14.40;99.90;;;;;;4987849;28;20023;-58
2022/09/03 03:54:51;;;;;;;24.80;20.55;;;14.40;99.90;;;;;;4982474;28;20022;-58
2022/09/03 03:57:18;;;;;;;25.20;21.10;;;14.40;99.90;;;;;;4990162;28;20080;-58
2022/09/03 03:59:44;;;;;;;27.63;22.17;;;14.40;99.90;;;;;;4981837;28;20121;-59
2022/09/03 04:02:10;;;;;;;27.38;22.10;;;14.30;99.90;;;;;;4989237;28;20037;-59
2022/09/03 04:04:36;;;;;;;27.17;22.38;;;14.20;99.90;;;;;;4983229;28;20058;-59
2022/09/03 04:07:01;;;;;;;30.65;23.15;;;14.10;99.90;;;;;;4985198;28;20023;-58
2022/09/03 04:09:27;;;;;;;27.60;21.90;;;14.10;99.90;;;;;;4988389;28;20512;-57
2022/09/03 04:11:53;;;;;;;31.50;23.67;;;14.10;99.90;;;;;;4989194;28;20023;-58
2022/09/03 04:14:18;;;;;;;30.73;22.52;;;14.10;99.90;;;;;;4984941;28;20104;-57
2022/09/03 04:16:45;;;;;;;28.83;22.38;;;14.10;99.90;;;;;;4989421;28;20324;-58
2022/09/03 04:19:12;;;;;;;29.15;23.60;;;14.10;99.90;;;;;;4986020;28;20030;-58
2022/09/03 04:21:38;;;;;;;29.33;23.25;;;14.00;99.90;;;;;;4980800;28;20538;-58
2022/09/03 04:24:04;;;;;;;33.15;25.27;;;14.00;99.90;;;;;;4986819;28;20131;-57
2022/09/03 04:26:32;;;;;;;32.33;25.35;;;13.90;99.90;;;;;;4985449;28;20049;-57
2022/09/03 04:29:06;;;;;;;34.30;28.35;;;14.00;99.90;;;;;;4983269;28;20073;-59
2022/09/03 04:31:33;;;;;;;34.70;24.67;;;14.00;99.90;;;;;;4982270;28;20111;-58
2022/09/03 04:33:59;;;;;;;34.53;25.63;;;13.90;99.90;;;;;;4985835;28;20077;-58
2022/09/03 04:36:27;;;;;;;32.85;25.55;;;13.90;99.90;;;;;;4984950;28;20026;-58
2022/09/03 04:38:54;;;;;;;31.30;25.05;;;13.90;99.90;;;;;;4991558;28;20033;-58
2022/09/03 04:41:25;;;;;;;42.15;26.88;;;13.90;99.90;;;;;;4981232;28;20036;-61
2022/09/03 04:43:53;;;;;;;46.33;28.10;;;13.80;99.90;;;;;;4988661;28;20027;-57
2022/09/03 04:46:22;;;;;;;37.88;26.77;;;13.80;99.90;;;;;;4987208;28;20446;-58
2022/09/03 04:48:50;;;;;;;46.20;28.95;;;13.80;99.90;;;;;;4986938;28;20046;-58
2022/09/03 04:51:21;;;;;;;50.80;27.63;;;13.90;99.90;;;;;;4976034;28;20027;-57
2022/09/03 04:53:52;;;;;;;41.65;28.13;;;13.80;99.90;;;;;;4983747;28;20122;-58
2022/09/03 04:56:20;;;;;;;38.67;29.17;;;13.90;99.90;;;;;;4982885;28;20565;-59
2022/09/03 04:58:46;;;;;;;39.92;26.70;;;13.90;99.90;;;;;;4985371;28;20108;-58
2022/09/03 05:01:17;;;;;;;29.52;23.13;;;13.90;99.90;;;;;;4984844;28;20027;-59
2022/09/03 05:03:43;;;;;;;35.00;25.10;;;13.80;99.90;;;;;;4988077;28;20117;-58
2022/09/03 05:06:09;;;;;;;30.75;23.08;;;13.80;99.90;;;;;;4982887;28;20492;-58
2022/09/03 05:08:35;;;;;;;33.60;25.35;;;13.70;99.90;;;;;;4985931;28;20073;-58
2022/09/03 05:11:05;;;;;;;31.55;24.00;;;13.70;99.90;;;;;;4986837;28;20540;-63
2022/09/03 05:13:32;;;;;;;37.17;25.40;;;13.70;99.90;;;;;;4981913;28;20034;-58
2022/09/03 05:15:59;;;;;;;35.97;25.83;;;13.80;99.90;;;;;;4984884;28;20022;-58
2022/09/03 05:18:25;;;;;;;35.83;26.50;;;13.70;99.90;;;;;;4988190;28;20022;-58
2022/09/03 05:21:18;;;;;;;35.90;25.63;;;13.70;99.90;;;;;;4987948;28;20033;-58
2022/09/03 05:23:46;;;;;;;32.70;22.98;;;13.70;99.90;;;;;;4987351;28;20048;-58
2022/09/03 05:26:16;;;;;;;30.20;23.00;;;13.70;99.90;;;;;;4986146;28;20109;-58
2022/09/03 05:28:43;;;;;;;31.85;21.75;;;13.70;99.90;;;;;;4984457;28;20038;-58
2022/09/03 05:31:11;;;;;;;29.15;23.10;;;13.60;99.90;;;;;;4980724;28;20022;-57
2022/09/03 05:33:45;;;;;;;32.28;23.63;;;13.70;99.90;;;;;;4985782;28;20114;-57
2022/09/03 05:36:18;;;;;;;29.67;22.95;;;13.70;99.90;;;;;;4985885;28;20113;-59
2022/09/03 05:38:46;;;;;;;27.77;20.75;;;13.80;99.90;;;;;;4984338;28;20046;-58
2022/09/03 05:41:13;;;;;;;26.10;20.83;;;13.90;99.90;;;;;;4983171;28;20044;-59
2022/09/03 05:43:39;;;;;;;33.25;22.73;;;14.00;99.90;;;;;;4985619;28;20073;-59
2022/09/03 05:46:12;;;;;;;30.50;22.77;;;14.10;99.90;;;;;;4981565;28;20447;-59
2022/09/03 05:48:39;;;;;;;30.10;23.30;;;14.10;99.90;;;;;;4982668;28;20133;-59
2022/09/03 05:51:23;;;;;;;28.88;23.08;;;14.10;99.90;;;;;;4981176;28;20030;-59
2022/09/03 05:53:49;;;;;;;29.60;23.13;;;14.10;99.90;;;;;;4986430;28;20026;-59
2022/09/03 05:56:19;;;;;;;27.92;22.60;;;14.10;99.90;;;;;;4987951;28;20048;-58
2022/09/03 05:58:50;;;;;;;30.05;24.08;;;14.10;99.90;;;;;;4983855;28;20027;-59
2022/09/03 06:01:17;;;;;;;29.25;23.45;;;14.10;99.90;;;;;;4987279;28;20040;-58
2022/09/03 06:03:44;;;;;;;31.90;23.98;;;14.20;99.90;;;;;;4974657;28;20027;-58
2022/09/03 06:06:12;;;;;;;27.25;22.48;;;14.10;99.90;;;;;;4974673;28;20513;-58
2022/09/03 06:08:39;;;;;;;25.05;20.80;;;14.20;99.90;;;;;;4973655;28;20042;-59
2022/09/03 06:11:05;;;;;;;25.67;21.02;;;14.30;99.90;;;;;;4971363;28;20046;-58
2022/09/03 06:13:33;;;;;;;24.52;19.92;;;14.40;99.90;;;;;;4974342;28;20030;-58
2022/09/03 06:16:00;;;;;;;24.65;20.73;;;14.30;99.90;;;;;;4980224;28;20027;-60
2022/09/03 06:18:27;;;;;;;24.38;20.42;;;14.30;99.90;;;;;;4977151;28;20043;-59
2022/09/03 06:20:57;;;;;;;24.15;20.30;;;14.40;99.90;;;;;;4975557;28;20022;-58
2022/09/03 06:23:24;;;;;;;22.75;19.65;;;14.50;99.90;;;;;;4975815;28;20039;-59
2022/09/03 06:26:00;;;;;;;24.15;20.73;;;14.50;99.90;;;;;;4973932;28;20098;-59
2022/09/03 06:28:26;;;;;;;26.27;20.52;;;14.50;99.90;;;;;;4973041;28;20143;-58
2022/09/03 06:30:52;;;;;;;25.80;20.75;;;14.60;99.90;;;;;;4977124;28;20484;-58
2022/09/03 06:33:18;;;;;;;24.00;20.00;;;14.60;99.90;;;;;;4974730;28;20498;-58
2022/09/03 06:35:44;;;;;;;22.35;19.77;;;14.70;99.90;;;;;;4977614;28;20030;-58
2022/09/03 06:38:11;;;;;;;26.10;20.60;;;14.70;99.90;;;;;;4980888;28;20478;-58
2022/09/03 06:40:37;;;;;;;25.92;21.23;;;14.90;99.90;;;;;;4979521;28;20109;-59
2022/09/03 06:43:03;;;;;;;27.42;20.77;;;15.10;99.90;;;;;;4970656;28;20165;-58
2022/09/03 06:45:29;;;;;;;26.27;20.88;;;15.30;99.90;;;;;;4978523;28;20057;-58
2022/09/03 06:47:55;;;;;;;22.38;19.52;;;15.40;99.90;;;;;;4981888;28;20096;-58
2022/09/03 06:50:21;;;;;;;22.95;19.13;;;15.50;99.90;;;;;;4980275;28;20568;-57
2022/09/03 06:52:53;;;;;;;22.65;19.50;;;15.60;99.90;;;;;;4983729;28;20053;-59
2022/09/03 06:55:22;;;;;;;;;;;15.60;99.90;;;;;;4981757;28;20030;-59
2022/09/03 06:57:49;;;;;;;21.42;18.38;;;15.70;99.90;;;;;;4980374;28;20028;-59
2022/09/03 07:00:16;;;;;;;23.10;18.25;;;15.70;99.90;;;;;;4978022;28;20570;-59
2022/09/03 07:02:41;;;;;;;23.58;19.05;;;15.80;99.90;;;;;;4979968;28;20097;-59
2022/09/03 07:05:08;;;;;;;22.92;19.05;;;15.80;99.90;;;;;;4981463;28;20031;-58
2022/09/03 07:07:33;;;;;;;22.23;18.15;;;15.80;99.90;;;;;;4978219;28;20118;-59
2022/09/03 07:10:00;;;;;;;19.92;17.42;;;15.80;99.90;;;;;;4979399;28;20121;-57
2022/09/03 07:12:26;;;;;;;24.00;17.83;;;15.80;99.90;;;;;;4981550;28;20486;-59
2022/09/03 07:14:52;;;;;;;21.65;18.20;;;16.00;99.90;;;;;;4983415;28;20030;-58
2022/09/03 07:17:17;;;;;;;20.42;17.73;;;16.00;99.90;;;;;;4990854;28;20023;-59
2022/09/03 07:19:43;;;;;;;22.10;18.20;;;16.00;99.90;;;;;;4982252;28;20339;-59
2022/09/03 07:22:09;;;;;;;23.67;18.40;;;16.20;99.90;;;;;;4985025;28;20026;-59
2022/09/03 07:24:36;;;;;;;24.60;19.50;;;16.30;99.90;;;;;;4991662;28;20417;-60
2022/09/03 07:27:04;;;;;;;24.50;19.88;;;16.30;99.90;;;;;;4989465;28;20019;-58
2022/09/03 07:29:30;;;;;;;25.63;20.27;;;16.40;99.90;;;;;;4992449;28;20041;-60
2022/09/03 07:31:56;;;;;;;32.08;20.75;;;16.50;99.90;;;;;;4989634;28;20026;-59
2022/09/03 07:34:25;;;;;;;25.85;21.25;;;16.60;99.90;;;;;;4991395;28;20033;-58
2022/09/03 07:36:52;;;;;;;27.02;21.42;;;16.80;99.90;;;;;;4991615;28;20031;-58
2022/09/03 07:39:18;;;;;;;30.45;24.70;;;16.90;99.90;;;;;;4990606;28;20034;-58
2022/09/03 07:41:45;;;;;;;31.35;25.15;;;16.90;99.90;;;;;;4982796;28;20081;-58
2022/09/03 07:44:18;;;;;;;32.25;27.23;;;17.00;99.90;;;;;;4978666;28;20030;-58
2022/09/03 07:46:46;;;;;;;36.05;28.08;;;17.00;99.90;;;;;;4990177;28;20510;-58
2022/09/03 07:49:12;;;;;;;36.10;28.77;;;17.10;99.90;;;;;;4988604;28;20124;-58
2022/09/03 07:51:38;;;;;;;39.35;30.77;;;17.30;99.90;;;;;;4989472;28;20027;-58
2022/09/03 07:54:08;;;;;;;36.63;29.85;;;17.60;99.90;;;;;;4989605;28;20030;-58
2022/09/03 07:56:35;;;;;;;36.13;28.00;;;17.70;99.90;;;;;;4988358;28;20038;-58
2022/09/03 07:59:02;;;;;;;36.05;27.48;;;17.70;99.90;;;;;;4989499;28;20054;-58
2022/09/03 08:01:30;;;;;;;35.85;25.60;;;17.70;99.90;;;;;;4991489;28;20031;-58
2022/09/03 08:03:56;;;;;;;32.63;26.77;;;17.70;99.90;;;;;;4988406;28;20034;-58
2022/09/03 08:06:24;;;;;;;36.08;27.67;;;17.80;99.90;;;;;;4990057;28;20205;-58
2022/09/03 08:08:58;;;;;;;34.10;26.27;;;17.80;99.90;;;;;;4991027;28;20034;-58
2022/09/03 08:11:25;;;;;;;34.05;25.63;;;17.90;99.90;;;;;;4977695;28;20515;-58
2022/09/03 08:13:59;;;;;;;32.97;26.25;;;17.90;99.90;;;;;;4979511;28;20126;-59
2022/09/03 08:16:26;;;;;;;39.40;27.33;;;18.00;99.90;;;;;;4982627;28;20033;-58
2022/09/03 08:18:52;;;;;;;32.88;25.23;;;18.10;99.90;;;;;;4982106;28;20034;-58
2022/09/03 08:21:19;;;;;;;31.88;24.35;;;18.20;99.90;;;;;;4984941;28;20023;-58
2022/09/03 08:23:46;;;;;;;32.38;25.75;;;18.30;99.90;;;;;;4996492;28;20034;-58
2022/09/03 08:26:14;;;;;;;33.88;24.58;;;18.30;99.90;;;;;;4999023;28;20030;-58
2022/09/03 08:28:41;;;;;;;28.85;22.55;;;18.50;99.90;;;;;;4988981;28;20050;-58
2022/09/03 08:31:13;;;;;;;31.02;23.58;;;18.70;99.90;;;;;;4988747;28;20030;-59
2022/09/03 08:33:48;;;;;;;32.00;22.55;;;18.90;99.90;;;;;;4981507;28;20058;-58
2022/09/03 08:36:21;;;;;;;28.90;20.70;;;19.00;99.90;;;;;;4982249;28;20118;-63
2022/09/03 08:38:48;;;;;;;24.58;19.95;;;19.10;99.90;;;;;;4976063;28;20026;-58
2022/09/03 08:41:17;;;;;;;24.73;19.25;;;19.20;99.90;;;;;;4984347;28;20069;-58
2022/09/03 08:44:08;;;;;;;20.23;17.05;;;19.30;99.90;;;;;;4985110;28;20033;-58
2022/09/03 08:46:46;;;;;;;16.23;13.35;;;19.60;99.90;;;;;;4983634;28;20158;-58
2022/09/03 08:49:15;;;;;;;15.13;12.98;;;19.80;99.90;;;;;;4988489;28;20054;-58
2022/09/03 08:51:43;;;;;;;15.07;11.63;;;20.00;99.90;;;;;;4995650;28;20018;-58
2022/09/03 08:54:10;;;;;;;13.40;10.85;;;20.20;99.90;;;;;;4987877;28;20031;-57
2022/09/03 08:56:40;;;;;;;12.50;10.82;;;20.20;99.90;;;;;;4988998;28;20038;-58
2022/09/03 08:59:08;;;;;;;13.23;9.88;;;20.20;99.90;;;;;;4981107;28;20038;-59
2022/09/03 09:02:13;;;;;;;9.70;8.63;;;20.30;99.90;;;;;;4983379;28;20068;-59
2022/09/03 09:04:48;;;;;;;11.77;9.40;;;20.20;99.90;;;;;;4980035;28;20034;-58
2022/09/03 09:07:22;;;;;;;16.75;10.30;;;20.20;99.90;;;;;;4981882;28;20030;-59
2022/09/03 09:10:17;;;;;;;16.42;10.30;;;20.20;99.90;;;;;;4983526;28;20038;-59
2022/09/03 09:12:46;;;;;;;14.52;11.35;;;20.30;99.90;;;;;;4989587;28;20025;-57
2022/09/03 09:15:25;;;;;;;13.43;9.32;;;20.40;99.90;;;;;;4986796;28;20112;-61
2022/09/03 09:18:19;;;;;;;10.20;8.80;;;20.60;99.90;;;;;;4983167;28;20398;-60
2022/09/03 09:20:53;;;;;;;9.38;8.30;;;20.80;99.90;;;;;;4988781;28;20030;-62
2022/09/03 09:23:30;;;;;;;13.55;7.80;;;21.10;99.90;;;;;;4980740;28;20502;-61
2022/09/03 09:25:58;;;;;;;8.07;6.60;;;21.40;99.90;;;;;;4987555;28;20101;-60
2022/09/03 09:28:34;;;;;;;8.75;6.50;;;21.60;99.90;;;;;;4985337;28;20030;-57
2022/09/03 09:31:03;;;;;;;7.72;4.72;;;21.80;99.90;;;;;;4981428;28;20121;-59
2022/09/03 09:33:33;;;;;;;5.00;4.15;;;21.90;99.90;;;;;;4981243;28;20113;-59
2022/09/03 09:36:02;;;;;;;4.45;4.05;;;22.20;99.90;;;;;;4982614;28;20073;-59
2022/09/03 09:38:31;;;;;;;6.57;4.80;;;22.40;99.90;;;;;;4988122;28;20030;-59
2022/09/03 09:41:08;;;;;;;4.28;3.88;;;22.50;99.90;;;;;;4984980;28;20534;-59
2022/09/03 09:43:34;;;;;;;9.00;5.00;;;22.60;99.90;;;;;;4985877;28;20038;-58
2022/09/03 09:46:18;;;;;;;4.07;3.38;;;22.80;99.90;;;;;;4987432;28;20029;-58
2022/09/03 09:48:51;;;;;;;4.55;3.85;;;22.70;99.90;;;;;;4985558;28;20386;-58
2022/09/03 09:51:23;;;;;;;6.40;3.97;;;22.80;99.90;;;;;;4988800;28;20565;-58
2022/09/03 09:54:17;;;;;;;4.22;3.75;;;22.90;99.90;;;;;;4988169;28;20073;-58
2022/09/03 09:56:43;;;;;;;3.55;3.05;;;23.00;99.90;;;;;;4990057;28;20035;-59
2022/09/03 09:59:10;;;;;;;3.33;2.65;;;23.20;99.90;;;;;;4987268;28;20097;-59
2022/09/03 10:01:39;;;;;;;6.45;3.45;;;23.40;99.90;;;;;;4990451;28;20034;-59
2022/09/03 10:04:11;;;;;;;2.45;2.25;;;23.60;99.90;;;;;;4978637;28;20414;-59
2022/09/03 10:09:24;;;;;;;2.50;2.25;;;23.50;99.90;;;;;;4988534;28;20092;-58
2022/09/03 10:12:23;;;;;;;4.60;2.75;;;23.50;99.90;;;;;;4989949;28;20113;-58
2022/09/03 10:15:02;;;;;;;3.17;2.88;;;23.30;99.90;;;;;;4984379;28;20038;-59
2022/09/03 10:17:38;;;;;;;4.65;2.90;;;23.30;99.90;;;;;;4989319;28;20385;-58
2022/09/03 10:20:26;;;;;;;4.93;3.25;;;23.40;99.90;;;;;;4980623;28;20031;-58
2022/09/03 10:23:10;;;;;;;3.75;3.28;;;23.60;99.90;;;;;;4989888;28;20026;-57
2022/09/03 10:26:06;;;;;;;3.58;2.78;;;23.80;99.90;;;;;;4984391;28;20052;-58
2022/09/03 10:28:40;;;;;;;3.38;3.00;;;23.80;99.90;;;;;;4983057;28;20401;-58
2022/09/03 10:31:10;;;;;;;2.42;2.22;;;23.80;99.90;;;;;;4988242;28;20113;-58
2022/09/03 10:33:54;;;;;;;4.50;2.97;;;23.80;99.90;;;;;;4989207;28;20027;-58
2022/09/03 10:36:35;;;;;;;2.38;1.58;;;24.10;99.90;;;;;;4986418;28;20109;-59
2022/09/03 10:39:24;;;;;;;2.47;2.28;;;24.20;99.90;;;;;;4987785;28;20042;-57
2022/09/03 10:42:12;;;;;;;4.45;2.38;;;24.40;99.90;;;;;;4988979;28;20022;-61
2022/09/03 10:44:45;;;;;;;3.38;2.10;;;24.30;99.90;;;;;;4986190;28;20026;-59
2022/09/03 10:47:39;;;;;;;2.97;1.90;;;24.70;99.90;;;;;;4979071;28;20084;-59
2022/09/03 10:50:22;;;;;;;2.00;1.80;;;24.60;99.90;;;;;;4982074;28;20534;-59
2022/09/03 10:53:09;;;;;;;2.58;2.35;;;24.90;99.90;;;;;;4989543;28;20125;-59
2022/09/03 10:55:46;;;;;;;2.90;2.13;;;25.00;99.90;;;;;;4989453;28;20040;-59
2022/09/03 10:58:30;;;;;;;3.90;2.40;;;25.00;99.90;;;;;;4986781;28;20029;-58
2022/09/03 11:01:23;;;;;;;4.43;2.70;;;24.60;99.90;;;;;;4988573;28;20037;-59
2022/09/03 11:03:53;;;;;;;3.72;2.45;;;24.20;99.90;;;;;;4988755;28;20072;-58
2022/09/03 11:06:28;;;;;;;5.15;3.17;;;24.10;99.90;;;;;;4987388;28;20050;-57
2022/09/03 11:08:58;;;;;;;3.05;2.75;;;24.00;99.90;;;;;;4989424;28;20046;-59
2022/09/03 11:11:54;;;;;;;3.58;2.83;;;24.40;99.90;;;;;;4977978;28;20026;-60
2022/09/03 11:14:37;;;;;;;5.63;3.25;;;24.20;99.90;;;;;;4987757;28;20034;-59
2022/09/03 11:17:22;;;;;;;3.28;2.97;;;24.40;99.90;;;;;;4987767;28;20104;-59
2022/09/03 11:20:08;;;;;;;4.13;3.63;;;24.60;99.90;;;;;;4984878;28;20034;-59
2022/09/03 11:22:37;;;;;;;4.30;3.65;;;24.50;99.90;;;;;;4986277;28;20077;-58
2022/09/03 11:25:06;;;;;;;4.97;4.47;;;24.40;99.90;;;;;;4986862;28;20027;-58
2022/09/03 11:27:40;;;;;;;4.40;3.97;;;24.40;99.90;;;;;;4987469;28;20030;-58
2022/09/03 11:30:08;;;;;;;4.78;3.30;;;24.00;99.90;;;;;;4987329;28;20050;-58
2022/09/03 11:32:34;;;;;;;4.70;4.10;;;24.20;99.90;;;;;;4992662;28;20034;-59
2022/09/03 11:34:59;;;;;;;5.38;4.00;;;24.50;99.90;;;;;;4989158;28;20041;-58
2022/09/03 11:37:29;;;;;;;9.02;4.72;;;24.60;99.90;;;;;;4993059;28;20125;-59
2022/09/03 11:40:10;;;;;;;5.82;5.05;;;24.60;99.90;;;;;;4992637;28;20037;-58
2022/09/03 11:42:41;;;;;;;5.32;4.47;;;24.40;99.90;;;;;;4986870;28;20038;-58
2022/09/03 11:45:20;;;;;;;6.40;4.23;;;24.40;99.90;;;;;;4980464;28;20041;-57
2022/09/03 11:47:47;;;;;;;4.68;4.07;;;24.90;99.90;;;;;;4992317;28;20521;-58
2022/09/03 11:50:30;;;;;;;6.78;4.95;;;25.40;99.90;;;;;;4991043;28;20038;-58
2022/09/03 11:53:14;;;;;;;6.57;4.35;;;25.00;99.90;;;;;;4992659;28;20125;-58
2022/09/03 11:56:11;;;;;;;6.30;4.72;;;24.40;99.90;;;;;;4991372;28;20446;-58
2022/09/03 11:58:41;;;;;;;7.57;4.80;;;24.00;99.90;;;;;;4988622;28;20034;-58
2022/09/03 12:01:13;;;;;;;6.70;4.93;;;23.70;99.90;;;;;;4991012;28;20390;-59
2022/09/03 12:04:05;;;;;;;6.35;5.60;;;23.30;99.90;;;;;;4992459;28;20030;-57
2022/09/03 12:06:42;;;;;;;7.55;5.85;;;23.00;99.90;;;;;;4985754;28;20084;-57
2022/09/03 12:09:16;;;;;;;8.73;5.82;;;23.10;99.90;;;;;;4988345;28;20046;-58
2022/09/03 12:12:15;;;;;;;7.85;6.43;;;23.30;99.90;;;;;;4992037;28;20038;-58
2022/09/03 12:15:02;;;;;;;6.70;6.05;;;23.40;99.90;;;;;;4956146;28;20055;-58
2022/09/03 12:17:46;;;;;;;7.40;5.85;;;23.10;99.90;;;;;;4957037;28;20487;-58
2022/09/03 12:20:14;;;;;;;8.98;6.30;;;22.90;99.90;;;;;;4951674;28;20031;-58
2022/09/03 12:22:40;;;;;;;10.20;8.02;;;23.00;99.90;;;;;;4953042;29;20052;-58
2022/09/03 12:25:14;;;;;;;10.18;8.27;;;23.00;99.90;;;;;;4951536;28;20031;-58
2022/09/03 12:27:45;;;;;;;11.32;9.20;;;23.20;99.90;;;;;;4952374;28;20414;-58
2022/09/03 12:30:17;;;;;;;10.45;8.18;;;23.50;99.90;;;;;;4951669;28;20074;-58
2022/09/03 12:32:45;;;;;;;10.02;8.95;;;23.60;99.90;;;;;;4963431;28;20054;-59
2022/09/03 12:35:15;;;;;;;8.95;8.07;;;23.50;99.90;;;;;;4951237;28;20459;-59
2022/09/03 12:37:44;;;;;;;9.32;5.85;;;23.30;99.90;;;;;;4953232;28;20107;-59
2022/09/03 12:40:25;;;;;;;5.78;4.35;;;23.00;99.90;;;;;;4951210;28;20019;-59
2022/09/03 12:42:51;;;;;;;6.45;4.00;;;23.20;99.90;;;;;;4951933;28;20122;-59
2022/09/03 12:45:22;;;;;;;4.00;3.70;;;23.30;99.90;;;;;;4951043;28;21009;-59
2022/09/03 12:47:48;;;;;;;5.05;4.10;;;23.30;99.90;;;;;;4952702;28;20399;-59
2022/09/03 12:50:20;;;;;;;7.68;3.95;;;23.50;99.90;;;;;;4951995;28;20066;-59
2022/09/03 12:52:55;;;;;;;5.50;3.95;;;23.60;99.90;;;;;;4952537;28;20035;-59
2022/09/03 12:55:41;;;;;;;4.95;3.60;;;23.70;99.90;;;;;;4947893;29;20135;-59
2022/09/03 12:58:18;;;;;;;6.90;4.00;;;23.90;99.90;;;;;;4944336;29;20034;-59
2022/09/03 13:01:17;;;;;;;5.63;3.70;;;24.10;99.90;;;;;;4952409;29;20039;-59
2022/09/03 13:03:46;;;;;;;5.50;3.38;;;24.10;99.90;;;;;;4949650;29;20039;-59
2022/09/03 13:06:19;;;;;;;6.13;3.55;;;24.50;99.90;;;;;;4951748;28;20039;-59